sensor_id;sensor_type;location;lat;lon;timestamp;P1;durP1;ratioP1;P2;durP2;ratioP2
77876;SDS011;67251;50.844;7.978;2023-10-08T00:01:15;10.57;;;4.53;;
77876;SDS011;67251;50.844;7.978;2023-10-08T00:03:44;13.05;;;4.80;;
77876;SDS011;67251;50.844;7.978;2023-10-08T00:06:17;8.98;;;3.72;;
77876;SDS011;67251;50.844;7.978;2023-10-08T00:08:45;10.50;;;4.05;;
77876;SDS011;67251;50.844;7.978;2023-10-08T00:11:11;8.48;;;4.00;;
77876;SDS011;67251;50.844;7.978;2023-10-08T00:13:36;7.95;;;3.72;;
77876;SDS011;67251;50.844;7.978;2023-10-08T00:16:07;7.20;;;3.28;;
77876;SDS011;67251;50.844;7.978;2023-10-08T00:18:37;8.57;;;3.33;;
77876;SDS011;67251;50.844;7.978;2023-10-08T00:21:06;6.95;;;2.88;;
77876;SDS011;67251;50.844;7.978;2023-10-08T00:23:38;9.10;;;3.90;;
77876;SDS011;67251;50.844;7.978;2023-10-08T00:26:14;8.13;;;3.72;;
77876;SDS011;67251;50.844;7.978;2023-10-08T00:31:12;8.23;;;3.28;;
77876;SDS011;67251;50.844;7.978;2023-10-08T00:33:38;9.73;;;3.30;;
77876;SDS011;67251;50.844;7.978;2023-10-08T00:36:09;8.50;;;3.08;;
77876;SDS011;67251;50.844;7.978;2023-10-08T00:38:45;10.45;;;3.10;;
77876;SDS011;67251;50.844;7.978;2023-10-08T00:41:23;6.63;;;2.50;;
77876;SDS011;67251;50.844;7.978;2023-10-08T00:43:54;7.50;;;3.42;;
77876;SDS011;67251;50.844;7.978;2023-10-08T00:46:22;8.18;;;2.80;;
77876;SDS011;67251;50.844;7.978;2023-10-08T00:51:20;7.35;;;2.97;;
77876;SDS011;67251;50.844;7.978;2023-10-08T00:53:48;8.55;;;3.10;;
77876;SDS011;67251;50.844;7.978;2023-10-08T00:56:22;7.22;;;2.90;;
77876;SDS011;67251;50.844;7.978;2023-10-08T00:58:50;8.52;;;3.10;;
77876;SDS011;67251;50.844;7.978;2023-10-08T01:01:18;7.68;;;3.00;;
77876;SDS011;67251;50.844;7.978;2023-10-08T01:03:49;8.38;;;3.30;;
77876;SDS011;67251;50.844;7.978;2023-10-08T01:06:15;10.18;;;3.35;;
77876;SDS011;67251;50.844;7.978;2023-10-08T01:08:46;8.73;;;3.25;;
77876;SDS011;67251;50.844;7.978;2023-10-08T01:11:21;9.57;;;3.03;;
77876;SDS011;67251;50.844;7.978;2023-10-08T01:13:57;7.88;;;3.30;;
77876;SDS011;67251;50.844;7.978;2023-10-08T01:16:24;7.85;;;3.20;;
77876;SDS011;67251;50.844;7.978;2023-10-08T01:18:52;9.85;;;3.38;;
77876;SDS011;67251;50.844;7.978;2023-10-08T01:21:19;7.57;;;2.75;;
77876;SDS011;67251;50.844;7.978;2023-10-08T01:23:56;8.02;;;3.33;;
77876;SDS011;67251;50.844;7.978;2023-10-08T01:26:25;9.90;;;3.83;;
77876;SDS011;67251;50.844;7.978;2023-10-08T01:28:50;11.10;;;4.07;;
77876;SDS011;67251;50.844;7.978;2023-10-08T01:31:17;8.35;;;3.33;;
77876;SDS011;67251;50.844;7.978;2023-10-08T01:33:43;8.00;;;3.03;;
77876;SDS011;67251;50.844;7.978;2023-10-08T01:36:15;9.32;;;3.60;;
77876;SDS011;67251;50.844;7.978;2023-10-08T01:38:41;7.97;;;3.60;;
77876;SDS011;67251;50.844;7.978;2023-10-08T01:41:07;10.13;;;3.65;;
77876;SDS011;67251;50.844;7.978;2023-10-08T01:49:09;7.00;;;3.22;;
77876;SDS011;67251;50.844;7.978;2023-10-08T01:51:46;9.98;;;3.00;;
77876;SDS011;67251;50.844;7.978;2023-10-08T01:54:12;8.90;;;2.97;;
77876;SDS011;67251;50.844;7.978;2023-10-08T01:56:40;8.23;;;2.75;;
77876;SDS011;67251;50.844;7.978;2023-10-08T01:59:10;8.02;;;2.97;;
77876;SDS011;67251;50.844;7.978;2023-10-08T02:01:37;7.90;;;2.67;;
77876;SDS011;67251;50.844;7.978;2023-10-08T02:04:04;7.82;;;3.75;;
77876;SDS011;67251;50.844;7.978;2023-10-08T02:06:32;7.28;;;2.85;;
77876;SDS011;67251;50.844;7.978;2023-10-08T02:08:58;13.73;;;2.97;;
77876;SDS011;67251;50.844;7.978;2023-10-08T02:11:24;7.38;;;3.10;;
77876;SDS011;67251;50.844;7.978;2023-10-08T02:13:52;9.93;;;3.33;;
77876;SDS011;67251;50.844;7.978;2023-10-08T02:16:18;7.80;;;2.88;;
77876;SDS011;67251;50.844;7.978;2023-10-08T02:18:47;8.85;;;3.13;;
77876;SDS011;67251;50.844;7.978;2023-10-08T02:21:13;9.95;;;3.50;;
77876;SDS011;67251;50.844;7.978;2023-10-08T02:23:38;7.22;;;2.97;;
77876;SDS011;67251;50.844;7.978;2023-10-08T02:26:04;8.45;;;2.90;;
77876;SDS011;67251;50.844;7.978;2023-10-08T02:28:30;7.25;;;2.85;;
77876;SDS011;67251;50.844;7.978;2023-10-08T02:30:58;7.40;;;2.65;;
77876;SDS011;67251;50.844;7.978;2023-10-08T02:33:25;7.63;;;2.90;;
77876;SDS011;67251;50.844;7.978;2023-10-08T02:35:51;8.73;;;3.13;;
77876;SDS011;67251;50.844;7.978;2023-10-08T02:38:18;7.65;;;2.90;;
77876;SDS011;67251;50.844;7.978;2023-10-08T02:40:46;6.90;;;2.80;;
77876;SDS011;67251;50.844;7.978;2023-10-08T02:43:13;6.53;;;2.72;;
77876;SDS011;67251;50.844;7.978;2023-10-08T02:45:40;7.63;;;3.25;;
77876;SDS011;67251;50.844;7.978;2023-10-08T02:48:06;6.25;;;3.10;;
77876;SDS011;67251;50.844;7.978;2023-10-08T02:50:38;8.82;;;3.40;;
77876;SDS011;67251;50.844;7.978;2023-10-08T02:53:05;8.05;;;2.55;;
77876;SDS011;67251;50.844;7.978;2023-10-08T02:55:35;8.60;;;2.83;;
77876;SDS011;67251;50.844;7.978;2023-10-08T02:58:01;8.75;;;3.10;;
77876;SDS011;67251;50.844;7.978;2023-10-08T03:00:29;8.20;;;3.67;;
77876;SDS011;67251;50.844;7.978;2023-10-08T03:02:56;6.78;;;2.83;;
77876;SDS011;67251;50.844;7.978;2023-10-08T03:05:22;6.93;;;3.38;;
77876;SDS011;67251;50.844;7.978;2023-10-08T03:07:48;8.73;;;3.03;;
77876;SDS011;67251;50.844;7.978;2023-10-08T03:10:16;8.57;;;3.15;;
77876;SDS011;67251;50.844;7.978;2023-10-08T03:12:45;7.88;;;3.25;;
77876;SDS011;67251;50.844;7.978;2023-10-08T03:15:11;8.35;;;2.95;;
77876;SDS011;67251;50.844;7.978;2023-10-08T03:17:37;9.32;;;2.83;;
77876;SDS011;67251;50.844;7.978;2023-10-08T03:20:13;6.55;;;3.33;;
77876;SDS011;67251;50.844;7.978;2023-10-08T03:25:22;7.18;;;3.25;;
77876;SDS011;67251;50.844;7.978;2023-10-08T03:27:49;7.97;;;2.97;;
77876;SDS011;67251;50.844;7.978;2023-10-08T03:30:15;8.65;;;3.22;;
77876;SDS011;67251;50.844;7.978;2023-10-08T03:32:41;9.60;;;2.88;;
77876;SDS011;67251;50.844;7.978;2023-10-08T03:35:09;8.15;;;3.30;;
77876;SDS011;67251;50.844;7.978;2023-10-08T03:37:38;7.53;;;2.88;;
77876;SDS011;67251;50.844;7.978;2023-10-08T03:40:11;9.93;;;3.05;;
77876;SDS011;67251;50.844;7.978;2023-10-08T03:42:58;9.00;;;3.53;;
77876;SDS011;67251;50.844;7.978;2023-10-08T03:45:23;5.68;;;2.60;;
77876;SDS011;67251;50.844;7.978;2023-10-08T03:48:07;6.88;;;2.80;;
77876;SDS011;67251;50.844;7.978;2023-10-08T03:50:37;8.25;;;3.13;;
77876;SDS011;67251;50.844;7.978;2023-10-08T03:53:08;7.03;;;2.83;;
77876;SDS011;67251;50.844;7.978;2023-10-08T03:55:37;8.25;;;2.83;;
77876;SDS011;67251;50.844;7.978;2023-10-08T03:58:09;8.13;;;2.53;;
77876;SDS011;67251;50.844;7.978;2023-10-08T04:00:54;9.80;;;2.95;;
77876;SDS011;67251;50.844;7.978;2023-10-08T04:03:36;8.25;;;2.70;;
77876;SDS011;67251;50.844;7.978;2023-10-08T04:06:20;7.22;;;2.60;;
77876;SDS011;67251;50.844;7.978;2023-10-08T04:08:55;8.73;;;2.78;;
77876;SDS011;67251;50.844;7.978;2023-10-08T04:11:37;8.35;;;2.97;;
77876;SDS011;67251;50.844;7.978;2023-10-08T04:14:12;9.43;;;2.60;;
77876;SDS011;67251;50.844;7.978;2023-10-08T04:16:41;8.15;;;2.55;;
77876;SDS011;67251;50.844;7.978;2023-10-08T04:19:07;7.13;;;2.30;;
77876;SDS011;67251;50.844;7.978;2023-10-08T04:21:33;9.52;;;2.55;;
77876;SDS011;67251;50.844;7.978;2023-10-08T04:24:18;6.78;;;2.75;;
77876;SDS011;67251;50.844;7.978;2023-10-08T04:26:45;8.10;;;3.10;;
77876;SDS011;67251;50.844;7.978;2023-10-08T04:29:10;7.50;;;2.83;;
77876;SDS011;67251;50.844;7.978;2023-10-08T04:31:41;7.72;;;2.80;;
77876;SDS011;67251;50.844;7.978;2023-10-08T04:34:11;8.60;;;2.67;;
77876;SDS011;67251;50.844;7.978;2023-10-08T04:36:47;6.15;;;2.65;;
77876;SDS011;67251;50.844;7.978;2023-10-08T04:39:19;7.65;;;2.92;;
77876;SDS011;67251;50.844;7.978;2023-10-08T04:41:56;6.05;;;2.78;;
77876;SDS011;67251;50.844;7.978;2023-10-08T04:44:28;9.10;;;2.80;;
77876;SDS011;67251;50.844;7.978;2023-10-08T04:46:57;7.07;;;2.80;;
77876;SDS011;67251;50.844;7.978;2023-10-08T04:49:29;7.78;;;2.70;;
77876;SDS011;67251;50.844;7.978;2023-10-08T04:51:58;8.10;;;3.30;;
77876;SDS011;67251;50.844;7.978;2023-10-08T04:54:28;9.38;;;3.28;;
77876;SDS011;67251;50.844;7.978;2023-10-08T04:57:00;9.35;;;3.15;;
77876;SDS011;67251;50.844;7.978;2023-10-08T04:59:29;7.20;;;3.00;;
77876;SDS011;67251;50.844;7.978;2023-10-08T05:02:03;7.68;;;2.60;;
77876;SDS011;67251;50.844;7.978;2023-10-08T05:04:46;8.25;;;2.88;;
77876;SDS011;67251;50.844;7.978;2023-10-08T05:07:32;6.20;;;2.65;;
77876;SDS011;67251;50.844;7.978;2023-10-08T05:10:09;8.25;;;2.83;;
77876;SDS011;67251;50.844;7.978;2023-10-08T05:12:54;8.40;;;2.97;;
77876;SDS011;67251;50.844;7.978;2023-10-08T05:15:28;8.73;;;2.90;;
77876;SDS011;67251;50.844;7.978;2023-10-08T05:18:14;7.95;;;2.88;;
77876;SDS011;67251;50.844;7.978;2023-10-08T05:20:43;10.90;;;3.65;;
77876;SDS011;67251;50.844;7.978;2023-10-08T05:23:17;7.95;;;2.70;;
77876;SDS011;67251;50.844;7.978;2023-10-08T05:25:51;9.50;;;3.20;;
77876;SDS011;67251;50.844;7.978;2023-10-08T05:31:25;8.25;;;3.38;;
77876;SDS011;67251;50.844;7.978;2023-10-08T05:34:10;7.65;;;2.72;;
77876;SDS011;67251;50.844;7.978;2023-10-08T05:36:54;8.95;;;3.33;;
77876;SDS011;67251;50.844;7.978;2023-10-08T05:39:25;6.63;;;2.88;;
77876;SDS011;67251;50.844;7.978;2023-10-08T05:42:19;9.48;;;3.45;;
77876;SDS011;67251;50.844;7.978;2023-10-08T05:44:53;9.32;;;3.35;;
77876;SDS011;67251;50.844;7.978;2023-10-08T05:47:33;11.10;;;3.97;;
77876;SDS011;67251;50.844;7.978;2023-10-08T05:49:59;7.50;;;2.70;;
77876;SDS011;67251;50.844;7.978;2023-10-08T05:52:46;6.35;;;3.03;;
77876;SDS011;67251;50.844;7.978;2023-10-08T05:55:30;9.60;;;3.13;;
77876;SDS011;67251;50.844;7.978;2023-10-08T05:58:04;8.35;;;3.00;;
77876;SDS011;67251;50.844;7.978;2023-10-08T06:00:44;8.45;;;2.60;;
77876;SDS011;67251;50.844;7.978;2023-10-08T06:03:29;6.55;;;2.55;;
77876;SDS011;67251;50.844;7.978;2023-10-08T06:06:02;8.60;;;2.55;;
77876;SDS011;67251;50.844;7.978;2023-10-08T06:08:38;9.88;;;3.00;;
77876;SDS011;67251;50.844;7.978;2023-10-08T06:11:15;7.18;;;3.08;;
77876;SDS011;67251;50.844;7.978;2023-10-08T06:14:09;8.25;;;3.28;;
77876;SDS011;67251;50.844;7.978;2023-10-08T06:16:41;6.82;;;2.83;;
77876;SDS011;67251;50.844;7.978;2023-10-08T06:19:12;7.57;;;2.97;;
77876;SDS011;67251;50.844;7.978;2023-10-08T06:21:39;8.82;;;3.13;;
77876;SDS011;67251;50.844;7.978;2023-10-08T06:24:06;9.30;;;3.15;;
77876;SDS011;67251;50.844;7.978;2023-10-08T06:26:39;8.00;;;3.25;;
77876;SDS011;67251;50.844;7.978;2023-10-08T06:29:09;6.15;;;3.00;;
77876;SDS011;67251;50.844;7.978;2023-10-08T06:31:44;9.63;;;3.20;;
77876;SDS011;67251;50.844;7.978;2023-10-08T06:34:15;8.50;;;3.80;;
77876;SDS011;67251;50.844;7.978;2023-10-08T06:36:41;11.27;;;3.97;;
77876;SDS011;67251;50.844;7.978;2023-10-08T06:39:07;10.32;;;4.78;;
77876;SDS011;67251;50.844;7.978;2023-10-08T06:41:37;8.52;;;3.72;;
77876;SDS011;67251;50.844;7.978;2023-10-08T06:44:02;10.07;;;3.97;;
77876;SDS011;67251;50.844;7.978;2023-10-08T06:46:28;11.68;;;3.63;;
77876;SDS011;67251;50.844;7.978;2023-10-08T06:48:57;10.05;;;4.30;;
77876;SDS011;67251;50.844;7.978;2023-10-08T06:51:28;9.57;;;3.83;;
77876;SDS011;67251;50.844;7.978;2023-10-08T06:53:55;11.75;;;3.80;;
77876;SDS011;67251;50.844;7.978;2023-10-08T06:56:24;7.43;;;3.40;;
77876;SDS011;67251;50.844;7.978;2023-10-08T06:58:49;6.50;;;2.80;;
77876;SDS011;67251;50.844;7.978;2023-10-08T07:01:19;10.70;;;3.42;;
77876;SDS011;67251;50.844;7.978;2023-10-08T07:03:50;8.05;;;3.10;;
77876;SDS011;67251;50.844;7.978;2023-10-08T07:06:21;7.70;;;3.10;;
77876;SDS011;67251;50.844;7.978;2023-10-08T07:08:56;6.60;;;2.90;;
77876;SDS011;67251;50.844;7.978;2023-10-08T07:11:26;12.75;;;3.17;;
77876;SDS011;67251;50.844;7.978;2023-10-08T07:13:52;8.27;;;2.90;;
77876;SDS011;67251;50.844;7.978;2023-10-08T07:16:22;7.68;;;2.92;;
77876;SDS011;67251;50.844;7.978;2023-10-08T07:18:48;6.78;;;2.58;;
77876;SDS011;67251;50.844;7.978;2023-10-08T07:21:26;7.93;;;2.90;;
77876;SDS011;67251;50.844;7.978;2023-10-08T07:24:04;7.95;;;3.17;;
77876;SDS011;67251;50.844;7.978;2023-10-08T07:26:34;7.43;;;2.75;;
77876;SDS011;67251;50.844;7.978;2023-10-08T07:29:03;8.75;;;3.00;;
77876;SDS011;67251;50.844;7.978;2023-10-08T07:31:33;8.65;;;2.80;;
77876;SDS011;67251;50.844;7.978;2023-10-08T07:34:01;8.90;;;3.00;;
77876;SDS011;67251;50.844;7.978;2023-10-08T07:36:46;8.52;;;2.78;;
77876;SDS011;67251;50.844;7.978;2023-10-08T07:39:12;7.70;;;3.13;;
77876;SDS011;67251;50.844;7.978;2023-10-08T07:41:57;7.97;;;2.75;;
77876;SDS011;67251;50.844;7.978;2023-10-08T07:44:24;6.57;;;2.80;;
77876;SDS011;67251;50.844;7.978;2023-10-08T07:46:50;7.43;;;2.90;;
77876;SDS011;67251;50.844;7.978;2023-10-08T07:49:17;9.48;;;3.00;;
77876;SDS011;67251;50.844;7.978;2023-10-08T07:51:43;6.35;;;2.70;;
77876;SDS011;67251;50.844;7.978;2023-10-08T07:54:16;7.93;;;2.90;;
77876;SDS011;67251;50.844;7.978;2023-10-08T07:56:47;7.53;;;2.72;;
77876;SDS011;67251;50.844;7.978;2023-10-08T07:59:14;10.43;;;3.72;;
77876;SDS011;67251;50.844;7.978;2023-10-08T08:01:41;6.80;;;2.83;;
77876;SDS011;67251;50.844;7.978;2023-10-08T08:04:09;10.38;;;3.13;;
77876;SDS011;67251;50.844;7.978;2023-10-08T08:06:36;8.73;;;3.35;;
77876;SDS011;67251;50.844;7.978;2023-10-08T08:09:02;7.90;;;3.17;;
77876;SDS011;67251;50.844;7.978;2023-10-08T08:11:33;9.45;;;3.50;;
77876;SDS011;67251;50.844;7.978;2023-10-08T08:14:02;11.57;;;3.65;;
77876;SDS011;67251;50.844;7.978;2023-10-08T08:16:32;12.45;;;3.50;;
77876;SDS011;67251;50.844;7.978;2023-10-08T08:19:01;9.85;;;3.35;;
77876;SDS011;67251;50.844;7.978;2023-10-08T08:21:26;11.30;;;3.90;;
77876;SDS011;67251;50.844;7.978;2023-10-08T08:23:55;12.07;;;3.83;;
77876;SDS011;67251;50.844;7.978;2023-10-08T08:26:29;13.20;;;4.10;;
77876;SDS011;67251;50.844;7.978;2023-10-08T08:29:04;10.43;;;4.03;;
77876;SDS011;67251;50.844;7.978;2023-10-08T08:31:34;13.77;;;3.85;;
77876;SDS011;67251;50.844;7.978;2023-10-08T08:34:01;11.32;;;4.22;;
77876;SDS011;67251;50.844;7.978;2023-10-08T08:36:33;12.68;;;3.95;;
77876;SDS011;67251;50.844;7.978;2023-10-08T08:38:58;14.40;;;4.75;;
77876;SDS011;67251;50.844;7.978;2023-10-08T08:41:24;12.27;;;3.80;;
77876;SDS011;67251;50.844;7.978;2023-10-08T08:43:52;13.07;;;3.92;;
77876;SDS011;67251;50.844;7.978;2023-10-08T08:46:27;10.73;;;3.40;;
77876;SDS011;67251;50.844;7.978;2023-10-08T08:48:55;12.20;;;3.88;;
77876;SDS011;67251;50.844;7.978;2023-10-08T08:51:22;11.80;;;3.17;;
77876;SDS011;67251;50.844;7.978;2023-10-08T08:53:48;9.63;;;3.13;;
77876;SDS011;67251;50.844;7.978;2023-10-08T08:56:14;10.02;;;3.13;;
77876;SDS011;67251;50.844;7.978;2023-10-08T08:58:41;10.05;;;3.20;;
77876;SDS011;67251;50.844;7.978;2023-10-08T09:01:07;9.55;;;2.83;;
77876;SDS011;67251;50.844;7.978;2023-10-08T09:03:38;9.57;;;3.70;;
77876;SDS011;67251;50.844;7.978;2023-10-08T09:06:04;9.20;;;3.35;;
77876;SDS011;67251;50.844;7.978;2023-10-08T09:08:34;10.75;;;4.40;;
77876;SDS011;67251;50.844;7.978;2023-10-08T09:11:00;8.95;;;3.33;;
77876;SDS011;67251;50.844;7.978;2023-10-08T09:13:26;9.05;;;3.88;;
77876;SDS011;67251;50.844;7.978;2023-10-08T09:15:56;8.57;;;3.25;;
77876;SDS011;67251;50.844;7.978;2023-10-08T09:18:28;9.18;;;3.63;;
77876;SDS011;67251;50.844;7.978;2023-10-08T09:20:54;10.88;;;3.67;;
77876;SDS011;67251;50.844;7.978;2023-10-08T09:23:20;9.68;;;3.65;;
77876;SDS011;67251;50.844;7.978;2023-10-08T09:25:50;10.57;;;4.15;;
77876;SDS011;67251;50.844;7.978;2023-10-08T09:28:17;9.30;;;3.90;;
77876;SDS011;67251;50.844;7.978;2023-10-08T09:30:43;10.35;;;3.25;;
77876;SDS011;67251;50.844;7.978;2023-10-08T09:33:10;11.27;;;3.35;;
77876;SDS011;67251;50.844;7.978;2023-10-08T09:35:45;13.15;;;3.53;;
77876;SDS011;67251;50.844;7.978;2023-10-08T09:38:11;11.75;;;3.75;;
77876;SDS011;67251;50.844;7.978;2023-10-08T09:40:37;11.35;;;3.60;;
77876;SDS011;67251;50.844;7.978;2023-10-08T09:43:06;13.73;;;3.85;;
77876;SDS011;67251;50.844;7.978;2023-10-08T09:45:36;11.95;;;3.70;;
77876;SDS011;67251;50.844;7.978;2023-10-08T09:48:10;11.98;;;3.95;;
77876;SDS011;67251;50.844;7.978;2023-10-08T09:50:38;13.43;;;3.95;;
77876;SDS011;67251;50.844;7.978;2023-10-08T09:53:13;12.20;;;4.10;;
77876;SDS011;67251;50.844;7.978;2023-10-08T09:55:46;9.02;;;4.13;;
77876;SDS011;67251;50.844;7.978;2023-10-08T09:58:19;10.73;;;3.60;;
77876;SDS011;67251;50.844;7.978;2023-10-08T10:00:47;10.65;;;3.58;;
77876;SDS011;67251;50.844;7.978;2023-10-08T10:03:15;10.25;;;3.75;;
77876;SDS011;67251;50.844;7.978;2023-10-08T10:05:44;12.13;;;4.22;;
77876;SDS011;67251;50.844;7.978;2023-10-08T10:08:09;10.63;;;4.10;;
77876;SDS011;67251;50.844;7.978;2023-10-08T10:10:37;11.57;;;3.95;;
77876;SDS011;67251;50.844;7.978;2023-10-08T10:13:03;12.10;;;4.18;;
77876;SDS011;67251;50.844;7.978;2023-10-08T10:15:36;11.48;;;3.70;;
77876;SDS011;67251;50.844;7.978;2023-10-08T10:18:08;8.55;;;3.58;;
77876;SDS011;67251;50.844;7.978;2023-10-08T10:20:38;11.55;;;3.65;;
77876;SDS011;67251;50.844;7.978;2023-10-08T10:23:34;10.10;;;4.00;;
77876;SDS011;67251;50.844;7.978;2023-10-08T10:26:03;15.95;;;4.88;;
77876;SDS011;67251;50.844;7.978;2023-10-08T10:28:29;11.32;;;3.72;;
77876;SDS011;67251;50.844;7.978;2023-10-08T10:30:55;14.52;;;4.65;;
77876;SDS011;67251;50.844;7.978;2023-10-08T10:33:31;10.35;;;3.92;;
77876;SDS011;67251;50.844;7.978;2023-10-08T10:35:57;9.63;;;3.40;;
77876;SDS011;67251;50.844;7.978;2023-10-08T10:38:26;12.68;;;4.00;;
77876;SDS011;67251;50.844;7.978;2023-10-08T10:40:55;13.18;;;5.13;;
77876;SDS011;67251;50.844;7.978;2023-10-08T10:45:57;12.27;;;4.53;;
77876;SDS011;67251;50.844;7.978;2023-10-08T10:48:23;14.27;;;5.60;;
77876;SDS011;67251;50.844;7.978;2023-10-08T10:50:50;16.70;;;5.07;;
77876;SDS011;67251;50.844;7.978;2023-10-08T10:53:34;13.77;;;6.38;;
77876;SDS011;67251;50.844;7.978;2023-10-08T10:56:13;17.83;;;6.55;;
77876;SDS011;67251;50.844;7.978;2023-10-08T10:58:52;15.77;;;6.05;;
77876;SDS011;67251;50.844;7.978;2023-10-08T11:01:22;16.48;;;5.70;;
77876;SDS011;67251;50.844;7.978;2023-10-08T11:03:51;13.35;;;4.93;;
77876;SDS011;67251;50.844;7.978;2023-10-08T11:06:17;14.50;;;5.53;;
77876;SDS011;67251;50.844;7.978;2023-10-08T11:08:48;14.45;;;5.07;;
77876;SDS011;67251;50.844;7.978;2023-10-08T11:11:18;14.02;;;4.78;;
77876;SDS011;67251;50.844;7.978;2023-10-08T11:13:44;12.13;;;4.50;;
77876;SDS011;67251;50.844;7.978;2023-10-08T11:16:17;15.77;;;4.93;;
77876;SDS011;67251;50.844;7.978;2023-10-08T11:18:45;14.35;;;4.47;;
77876;SDS011;67251;50.844;7.978;2023-10-08T11:21:16;14.75;;;4.75;;
77876;SDS011;67251;50.844;7.978;2023-10-08T11:23:44;14.77;;;4.68;;
77876;SDS011;67251;50.844;7.978;2023-10-08T11:26:24;15.60;;;4.82;;
77876;SDS011;67251;50.844;7.978;2023-10-08T11:29:00;12.82;;;5.35;;
77876;SDS011;67251;50.844;7.978;2023-10-08T11:31:28;16.88;;;4.97;;
77876;SDS011;67251;50.844;7.978;2023-10-08T11:34:01;15.20;;;4.60;;
77876;SDS011;67251;50.844;7.978;2023-10-08T11:36:33;16.10;;;5.65;;
77876;SDS011;67251;50.844;7.978;2023-10-08T11:39:13;13.35;;;5.20;;
77876;SDS011;67251;50.844;7.978;2023-10-08T11:42:02;15.20;;;5.95;;
77876;SDS011;67251;50.844;7.978;2023-10-08T11:44:29;14.95;;;5.53;;
77876;SDS011;67251;50.844;7.978;2023-10-08T11:46:55;12.30;;;5.50;;
77876;SDS011;67251;50.844;7.978;2023-10-08T11:49:29;14.65;;;5.55;;
77876;SDS011;67251;50.844;7.978;2023-10-08T11:51:57;16.23;;;6.00;;
77876;SDS011;67251;50.844;7.978;2023-10-08T11:54:23;13.00;;;5.60;;
77876;SDS011;67251;50.844;7.978;2023-10-08T11:56:48;14.60;;;4.85;;
77876;SDS011;67251;50.844;7.978;2023-10-08T11:59:14;14.88;;;4.63;;
77876;SDS011;67251;50.844;7.978;2023-10-08T12:01:39;13.68;;;5.20;;
77876;SDS011;67251;50.844;7.978;2023-10-08T12:04:08;14.52;;;5.80;;
77876;SDS011;67251;50.844;7.978;2023-10-08T12:06:43;19.75;;;5.88;;
77876;SDS011;67251;50.844;7.978;2023-10-08T12:09:12;14.02;;;4.75;;
77876;SDS011;67251;50.844;7.978;2023-10-08T12:11:38;14.93;;;5.07;;
77876;SDS011;67251;50.844;7.978;2023-10-08T12:14:04;12.73;;;5.15;;
77876;SDS011;67251;50.844;7.978;2023-10-08T12:16:30;12.27;;;4.70;;
77876;SDS011;67251;50.844;7.978;2023-10-08T12:19:00;12.27;;;5.40;;
77876;SDS011;67251;50.844;7.978;2023-10-08T12:21:26;14.80;;;5.60;;
77876;SDS011;67251;50.844;7.978;2023-10-08T12:23:54;15.15;;;5.25;;
77876;SDS011;67251;50.844;7.978;2023-10-08T12:26:26;14.45;;;5.10;;
77876;SDS011;67251;50.844;7.978;2023-10-08T12:29:00;16.73;;;5.50;;
77876;SDS011;67251;50.844;7.978;2023-10-08T12:31:25;13.05;;;5.05;;
77876;SDS011;67251;50.844;7.978;2023-10-08T12:33:54;16.17;;;5.75;;
77876;SDS011;67251;50.844;7.978;2023-10-08T12:36:25;15.80;;;6.07;;
77876;SDS011;67251;50.844;7.978;2023-10-08T12:38:52;14.20;;;5.80;;
77876;SDS011;67251;50.844;7.978;2023-10-08T12:41:23;14.25;;;5.60;;
77876;SDS011;67251;50.844;7.978;2023-10-08T12:46:18;13.45;;;5.55;;
77876;SDS011;67251;50.844;7.978;2023-10-08T12:48:48;14.95;;;6.47;;
77876;SDS011;67251;50.844;7.978;2023-10-08T12:51:18;14.73;;;5.63;;
77876;SDS011;67251;50.844;7.978;2023-10-08T12:53:48;12.27;;;5.45;;
77876;SDS011;67251;50.844;7.978;2023-10-08T12:56:29;16.50;;;5.97;;
77876;SDS011;67251;50.844;7.978;2023-10-08T12:59:05;14.93;;;6.57;;
77876;SDS011;67251;50.844;7.978;2023-10-08T13:01:34;18.40;;;5.90;;
77876;SDS011;67251;50.844;7.978;2023-10-08T13:04:01;13.35;;;5.47;;
77876;SDS011;67251;50.844;7.978;2023-10-08T13:06:32;13.50;;;5.68;;
77876;SDS011;67251;50.844;7.978;2023-10-08T13:08:58;13.07;;;5.70;;
77876;SDS011;67251;50.844;7.978;2023-10-08T13:11:25;16.60;;;5.90;;
77876;SDS011;67251;50.844;7.978;2023-10-08T13:13:55;15.13;;;5.75;;
77876;SDS011;67251;50.844;7.978;2023-10-08T13:16:21;13.55;;;5.70;;
77876;SDS011;67251;50.844;7.978;2023-10-08T13:18:48;15.07;;;6.35;;
77876;SDS011;67251;50.844;7.978;2023-10-08T13:21:14;13.65;;;5.45;;
77876;SDS011;67251;50.844;7.978;2023-10-08T13:23:39;15.15;;;5.90;;
77876;SDS011;67251;50.844;7.978;2023-10-08T13:26:06;13.70;;;5.93;;
77876;SDS011;67251;50.844;7.978;2023-10-08T13:28:35;15.75;;;5.40;;
77876;SDS011;67251;50.844;7.978;2023-10-08T13:31:01;13.65;;;5.85;;
77876;SDS011;67251;50.844;7.978;2023-10-08T13:33:39;15.48;;;6.10;;
77876;SDS011;67251;50.844;7.978;2023-10-08T13:36:08;14.20;;;6.65;;
77876;SDS011;67251;50.844;7.978;2023-10-08T13:38:38;16.50;;;5.65;;
77876;SDS011;67251;50.844;7.978;2023-10-08T13:41:06;16.20;;;5.63;;
77876;SDS011;67251;50.844;7.978;2023-10-08T13:43:39;14.38;;;6.47;;
77876;SDS011;67251;50.844;7.978;2023-10-08T13:46:06;15.75;;;6.35;;
77876;SDS011;67251;50.844;7.978;2023-10-08T13:48:37;16.92;;;5.75;;
77876;SDS011;67251;50.844;7.978;2023-10-08T13:51:03;13.38;;;6.50;;
77876;SDS011;67251;50.844;7.978;2023-10-08T13:53:30;17.77;;;5.93;;
77876;SDS011;67251;50.844;7.978;2023-10-08T13:55:57;12.85;;;5.55;;
77876;SDS011;67251;50.844;7.978;2023-10-08T13:58:25;14.32;;;6.50;;
77876;SDS011;67251;50.844;7.978;2023-10-08T14:00:51;15.38;;;6.60;;
77876;SDS011;67251;50.844;7.978;2023-10-08T14:03:18;16.38;;;6.22;;
77876;SDS011;67251;50.844;7.978;2023-10-08T14:05:46;16.92;;;6.43;;
77876;SDS011;67251;50.844;7.978;2023-10-08T14:08:19;14.77;;;6.32;;
77876;SDS011;67251;50.844;7.978;2023-10-08T14:10:47;15.80;;;6.88;;
77876;SDS011;67251;50.844;7.978;2023-10-08T14:13:14;17.73;;;6.65;;
77876;SDS011;67251;50.844;7.978;2023-10-08T14:15:44;15.70;;;6.20;;
77876;SDS011;67251;50.844;7.978;2023-10-08T14:18:20;16.67;;;5.70;;
77876;SDS011;67251;50.844;7.978;2023-10-08T14:20:51;15.88;;;6.88;;
77876;SDS011;67251;50.844;7.978;2023-10-08T14:23:20;18.35;;;7.45;;
77876;SDS011;67251;50.844;7.978;2023-10-08T14:25:48;17.77;;;6.68;;
77876;SDS011;67251;50.844;7.978;2023-10-08T14:28:16;18.95;;;7.75;;
77876;SDS011;67251;50.844;7.978;2023-10-08T14:30:49;15.02;;;6.55;;
77876;SDS011;67251;50.844;7.978;2023-10-08T14:33:20;17.33;;;6.00;;
77876;SDS011;67251;50.844;7.978;2023-10-08T14:35:50;16.33;;;7.00;;
77876;SDS011;67251;50.844;7.978;2023-10-08T14:38:34;20.55;;;8.02;;
77876;SDS011;67251;50.844;7.978;2023-10-08T14:41:18;18.15;;;6.95;;
77876;SDS011;67251;50.844;7.978;2023-10-08T14:44:02;16.88;;;6.18;;
77876;SDS011;67251;50.844;7.978;2023-10-08T14:46:29;16.50;;;6.03;;
77876;SDS011;67251;50.844;7.978;2023-10-08T14:48:57;15.73;;;6.35;;
77876;SDS011;67251;50.844;7.978;2023-10-08T14:51:23;14.13;;;6.00;;
77876;SDS011;67251;50.844;7.978;2023-10-08T14:53:49;17.58;;;6.60;;
77876;SDS011;67251;50.844;7.978;2023-10-08T14:56:14;13.98;;;6.90;;
77876;SDS011;67251;50.844;7.978;2023-10-08T14:58:41;17.77;;;6.65;;
77876;SDS011;67251;50.844;7.978;2023-10-08T15:01:06;19.02;;;6.97;;
77876;SDS011;67251;50.844;7.978;2023-10-08T15:03:32;16.20;;;6.65;;
77876;SDS011;67251;50.844;7.978;2023-10-08T15:05:57;17.67;;;6.25;;
77876;SDS011;67251;50.844;7.978;2023-10-08T15:08:23;16.73;;;6.07;;
77876;SDS011;67251;50.844;7.978;2023-10-08T15:10:49;16.27;;;6.70;;
77876;SDS011;67251;50.844;7.978;2023-10-08T15:13:14;16.48;;;6.57;;
77876;SDS011;67251;50.844;7.978;2023-10-08T15:15:40;16.90;;;6.78;;
77876;SDS011;67251;50.844;7.978;2023-10-08T15:18:07;18.23;;;7.60;;
77876;SDS011;67251;50.844;7.978;2023-10-08T15:20:36;17.23;;;6.85;;